sensor_id;sensor_type;location;lat;lon;timestamp;pressure;altitude;pressure_sealevel;temperature;humidity
79331;BME280;68797;49.782;19.054;2023-03-23T13:52:54;96598.63;;;18.43;36.70
79331;BME280;68797;49.782;19.054;2023-03-23T14:03:01;96591.69;;;18.65;35.75
79331;BME280;68797;49.782;19.054;2023-03-23T14:05:33;96603.47;;;18.62;36.84
79331;BME280;68797;49.782;19.054;2023-03-23T14:10:44;96599.59;;;18.42;36.65
79331;BME280;68797;49.782;19.054;2023-03-23T14:13:20;96603.06;;;18.32;36.11
79331;BME280;68797;49.782;19.054;2023-03-23T14:16:05;96608.56;;;18.30;36.64
79331;BME280;68797;49.782;19.054;2023-03-23T14:18:49;96596.53;;;18.23;37.82
79331;BME280;68797;49.782;19.054;2023-03-23T14:21:22;96594.28;;;18.29;38.61
79331;BME280;68797;49.782;19.054;2023-03-23T14:23:51;96588.38;;;18.24;37.50
79331;BME280;68797;49.782;19.054;2023-03-23T14:26:19;96590.69;;;17.92;38.35
79331;BME280;68797;49.782;19.054;2023-03-23T14:28:50;96589.63;;;17.82;38.35
79331;BME280;68797;49.782;19.054;2023-03-23T14:31:22;96598.88;;;17.91;38.00
79331;BME280;68797;49.782;19.054;2023-03-23T14:33:51;96583.63;;;17.91;37.90
79331;BME280;68797;49.782;19.054;2023-03-23T14:36:23;96579.84;;;17.94;39.14
79331;BME280;68797;49.782;19.054;2023-03-23T14:41:51;96580.34;;;18.12;40.78
79331;BME280;68797;49.782;19.054;2023-03-23T17:14:24;96616.88;;;15.62;39.90
79331;BME280;68797;49.782;19.054;2023-03-23T17:18:00;96618.50;;;15.64;40.23
79331;BME280;68797;49.782;19.054;2023-03-23T17:20:28;96601.94;;;15.58;39.85
79331;BME280;68797;49.782;19.054;2023-03-23T17:22:55;96610.41;;;15.66;40.81
79331;BME280;68797;49.782;19.054;2023-03-23T17:25:21;96621.47;;;15.74;40.75
79331;BME280;68797;49.782;19.054;2023-03-23T17:27:49;96627.59;;;15.76;40.88
79331;BME280;68797;49.782;19.054;2023-03-23T17:30:20;96620.59;;;15.74;40.75
79331;BME280;68797;49.782;19.054;2023-03-23T17:32:47;96618.97;;;15.71;40.44
79331;BME280;68797;49.782;19.054;2023-03-23T17:35:14;96621.09;;;15.66;40.22
79331;BME280;68797;49.782;19.054;2023-03-23T17:37:43;96622.91;;;15.65;40.51
79331;BME280;68797;49.782;19.054;2023-03-23T17:40:10;96617.25;;;15.70;41.19
79331;BME280;68797;49.782;19.054;2023-03-23T17:42:38;96625.28;;;15.70;41.20
79331;BME280;68797;49.782;19.054;2023-03-23T17:45:06;96619.53;;;15.62;41.62
79331;BME280;68797;49.782;19.054;2023-03-23T17:47:34;96617.03;;;15.59;41.89
79331;BME280;68797;49.782;19.054;2023-03-23T17:50:01;96624.03;;;15.61;41.34
79331;BME280;68797;49.782;19.054;2023-03-23T17:52:30;96619.19;;;15.68;41.07
79331;BME280;68797;49.782;19.054;2023-03-23T17:54:59;96633.31;;;15.70;43.25
79331;BME280;68797;49.782;19.054;2023-03-23T17:57:27;96627.41;;;15.65;41.52
79331;BME280;68797;49.782;19.054;2023-03-23T17:59:52;96630.41;;;15.59;42.67
79331;BME280;68797;49.782;19.054;2023-03-23T18:02:20;96632.41;;;15.55;42.37
79331;BME280;68797;49.782;19.054;2023-03-23T18:04:49;96649.22;;;15.57;42.01
79331;BME280;68797;49.782;19.054;2023-03-23T18:07:17;96640.44;;;15.55;42.02
79331;BME280;68797;49.782;19.054;2023-03-23T18:09:49;96641.19;;;15.57;43.01
79331;BME280;68797;49.782;19.054;2023-03-23T18:12:15;96648.97;;;15.62;42.84
79331;BME280;68797;49.782;19.054;2023-03-23T18:14:44;96641.63;;;15.65;42.66
79331;BME280;68797;49.782;19.054;2023-03-23T18:17:11;96643.72;;;15.60;43.46
79331;BME280;68797;49.782;19.054;2023-03-23T18:19:37;96630.34;;;15.60;42.55
79331;BME280;68797;49.782;19.054;2023-03-23T18:22:04;96632.22;;;15.58;43.37
79331;BME280;68797;49.782;19.054;2023-03-23T18:24:31;96633.28;;;15.56;43.25
79331;BME280;68797;49.782;19.054;2023-03-23T18:26:58;96634.25;;;15.55;43.43
79331;BME280;68797;49.782;19.054;2023-03-23T18:29:27;96642.34;;;15.53;43.38
79331;BME280;68797;49.782;19.054;2023-03-23T18:31:55;96644.06;;;15.54;43.17
79331;BME280;68797;49.782;19.054;2023-03-23T18:34:24;96647.00;;;15.50;43.42
79331;BME280;68797;49.782;19.054;2023-03-23T18:36:51;96651.34;;;15.52;43.71
79331;BME280;68797;49.782;19.054;2023-03-23T18:39:17;96651.50;;;15.49;44.06
79331;BME280;68797;49.782;19.054;2023-03-23T18:41:46;96656.00;;;15.49;43.72
79331;BME280;68797;49.782;19.054;2023-03-23T18:44:12;96655.13;;;15.48;42.77
79331;BME280;68797;49.782;19.054;2023-03-23T18:46:38;96663.75;;;15.53;44.95
79331;BME280;68797;49.782;19.054;2023-03-23T18:49:06;96668.31;;;15.51;44.51
79331;BME280;68797;49.782;19.054;2023-03-23T18:51:35;96676.16;;;15.54;44.09
79331;BME280;68797;49.782;19.054;2023-03-23T18:54:03;96674.44;;;15.53;43.28
79331;BME280;68797;49.782;19.054;2023-03-23T18:56:39;96673.59;;;15.53;43.09
79331;BME280;68797;49.782;19.054;2023-03-23T18:59:06;96685.13;;;15.53;43.84
79331;BME280;68797;49.782;19.054;2023-03-23T19:01:34;96672.53;;;15.55;44.38
79331;BME280;68797;49.782;19.054;2023-03-23T19:04:00;96670.91;;;15.53;43.74
79331;BME280;68797;49.782;19.054;2023-03-23T19:06:42;96672.72;;;15.52;44.66
79331;BME280;68797;49.782;19.054;2023-03-23T19:09:11;96673.00;;;15.48;43.49
79331;BME280;68797;49.782;19.054;2023-03-23T19:11:39;96670.41;;;15.46;43.33
79331;BME280;68797;49.782;19.054;2023-03-23T19:14:07;96667.44;;;15.51;45.49
79331;BME280;68797;49.782;19.054;2023-03-23T19:16:36;96667.75;;;15.46;44.38
79331;BME280;68797;49.782;19.054;2023-03-23T19:19:04;96677.88;;;15.55;44.34
79331;BME280;68797;49.782;19.054;2023-03-23T19:21:40;96671.66;;;15.55;44.62
79331;BME280;68797;49.782;19.054;2023-03-23T19:24:10;96673.28;;;15.57;44.75
79331;BME280;68797;49.782;19.054;2023-03-23T19:26:41;96676.91;;;15.56;44.87
79331;BME280;68797;49.782;19.054;2023-03-23T19:29:12;96679.78;;;15.53;44.99
79331;BME280;68797;49.782;19.054;2023-03-23T19:31:40;96673.50;;;15.54;44.13
79331;BME280;68797;49.782;19.054;2023-03-23T19:34:07;96678.13;;;15.51;44.12
79331;BME280;68797;49.782;19.054;2023-03-23T19:36:35;96680.91;;;15.49;44.26
79331;BME280;68797;49.782;19.054;2023-03-23T19:39:03;96675.66;;;15.48;44.68
79331;BME280;68797;49.782;19.054;2023-03-23T19:41:32;96690.84;;;15.47;45.07
79331;BME280;68797;49.782;19.054;2023-03-23T19:44:01;96685.41;;;15.49;43.65
79331;BME280;68797;49.782;19.054;2023-03-23T19:46:31;96691.44;;;15.52;44.31
79331;BME280;68797;49.782;19.054;2023-03-23T19:49:00;96688.78;;;15.52;44.73
79331;BME280;68797;49.782;19.054;2023-03-23T19:51:29;96682.06;;;15.45;44.29
79331;BME280;68797;49.782;19.054;2023-03-23T19:53:56;96674.31;;;15.40;45.15
79331;BME280;68797;49.782;19.054;2023-03-23T19:56:26;96666.56;;;15.36;44.04
79331;BME280;68797;49.782;19.054;2023-03-23T19:58:56;96677.66;;;15.30;44.53
79331;BME280;68797;49.782;19.054;2023-03-23T20:01:23;96675.03;;;15.28;45.23
79331;BME280;68797;49.782;19.054;2023-03-23T20:03:49;96685.66;;;15.30;44.95
79331;BME280;68797;49.782;19.054;2023-03-23T20:06:17;96690.91;;;15.31;45.12
79331;BME280;68797;49.782;19.054;2023-03-23T20:08:45;96687.28;;;15.32;45.14
79331;BME280;68797;49.782;19.054;2023-03-23T20:11:17;96701.00;;;15.26;45.01
79331;BME280;68797;49.782;19.054;2023-03-23T20:13:45;96690.41;;;15.25;45.56
79331;BME280;68797;49.782;19.054;2023-03-23T20:16:15;96694.13;;;15.22;45.22
79331;BME280;68797;49.782;19.054;2023-03-23T20:18:43;96689.13;;;15.16;46.20
79331;BME280;68797;49.782;19.054;2023-03-23T20:21:16;96690.19;;;15.14;45.54
79331;BME280;68797;49.782;19.054;2023-03-23T20:23:46;96695.63;;;15.12;45.91
79331;BME280;68797;49.782;19.054;2023-03-23T20:26:32;96700.38;;;15.07;46.31
79331;BME280;68797;49.782;19.054;2023-03-23T20:29:00;96695.59;;;14.98;46.10
79331;BME280;68797;49.782;19.054;2023-03-23T20:31:31;96700.94;;;14.98;45.66
79331;BME280;68797;49.782;19.054;2023-03-23T20:34:04;96705.41;;;14.97;46.13
79331;BME280;68797;49.782;19.054;2023-03-23T20:36:43;96707.81;;;15.02;45.91
79331;BME280;68797;49.782;19.054;2023-03-23T20:39:12;96718.31;;;15.05;45.88
79331;BME280;68797;49.782;19.054;2023-03-23T20:41:41;96719.34;;;15.02;46.31
79331;BME280;68797;49.782;19.054;2023-03-23T20:44:11;96717.53;;;15.03;46.22
79331;BME280;68797;49.782;19.054;2023-03-23T20:46:49;96716.59;;;15.04;45.81
79331;BME280;68797;49.782;19.054;2023-03-23T20:49:19;96712.53;;;15.13;46.33
79331;BME280;68797;49.782;19.054;2023-03-23T20:51:49;96717.78;;;15.14;46.63
79331;BME280;68797;49.782;19.054;2023-03-23T20:54:20;96718.72;;;15.13;46.51
79331;BME280;68797;49.782;19.054;2023-03-23T20:56:51;96714.53;;;15.09;46.04
79331;BME280;68797;49.782;19.054;2023-03-23T20:59:17;96715.97;;;15.15;45.78
79331;BME280;68797;49.782;19.054;2023-03-23T21:01:53;96707.38;;;15.09;46.01
79331;BME280;68797;49.782;19.054;2023-03-23T21:04:22;96723.53;;;15.22;45.84
79331;BME280;68797;49.782;19.054;2023-03-23T21:06:53;96720.09;;;15.20;45.91
79331;BME280;68797;49.782;19.054;2023-03-23T21:09:23;96724.66;;;15.18;45.98
79331;BME280;68797;49.782;19.054;2023-03-23T21:11:57;96712.88;;;15.06;45.81
79331;BME280;68797;49.782;19.054;2023-03-23T21:14:27;96724.69;;;15.02;46.43
79331;BME280;68797;49.782;19.054;2023-03-23T21:16:57;96720.84;;;14.92;46.09
79331;BME280;68797;49.782;19.054;2023-03-23T21:19:28;96719.97;;;14.92;46.24
79331;BME280;68797;49.782;19.054;2023-03-23T21:21:56;96712.06;;;14.90;46.66
79331;BME280;68797;49.782;19.054;2023-03-23T21:24:25;96719.53;;;14.83;47.14
79331;BME280;68797;49.782;19.054;2023-03-23T21:26:58;96709.22;;;14.77;46.27
79331;BME280;68797;49.782;19.054;2023-03-23T21:29:24;96713.00;;;14.73;46.41
79331;BME280;68797;49.782;19.054;2023-03-23T21:31:56;96712.41;;;14.68;47.04
79331;BME280;68797;49.782;19.054;2023-03-23T21:34:23;96712.06;;;14.59;47.48
79331;BME280;68797;49.782;19.054;2023-03-23T21:36:50;96703.13;;;14.60;47.27
79331;BME280;68797;49.782;19.054;2023-03-23T21:39:17;96705.78;;;14.60;48.13
79331;BME280;68797;49.782;19.054;2023-03-23T21:41:44;96702.06;;;14.62;48.09
79331;BME280;68797;49.782;19.054;2023-03-23T21:44:11;96703.63;;;14.66;47.40
79331;BME280;68797;49.782;19.054;2023-03-23T21:46:40;96695.72;;;14.65;46.65
79331;BME280;68797;49.782;19.054;2023-03-23T21:49:10;96702.78;;;14.66;47.42
79331;BME280;68797;49.782;19.054;2023-03-23T21:51:40;96704.94;;;14.59;48.58
79331;BME280;68797;49.782;19.054;2023-03-23T21:54:09;96711.41;;;14.55;48.68
79331;BME280;68797;49.782;19.054;2023-03-23T21:56:39;96716.75;;;14.55;48.03
79331;BME280;68797;49.782;19.054;2023-03-23T21:59:07;96712.34;;;14.54;48.50
79331;BME280;68797;49.782;19.054;2023-03-23T22:01:34;96722.31;;;14.50;49.29
79331;BME280;68797;49.782;19.054;2023-03-23T22:04:06;96723.53;;;14.45;49.48
79331;BME280;68797;49.782;19.054;2023-03-23T22:06:35;96725.66;;;14.38;49.03
79331;BME280;68797;49.782;19.054;2023-03-23T22:09:07;96722.47;;;14.32;49.57
79331;BME280;68797;49.782;19.054;2023-03-23T22:11:36;96723.47;;;14.29;49.95
79331;BME280;68797;49.782;19.054;2023-03-23T22:14:03;96715.66;;;14.26;50.01
79331;BME280;68797;49.782;19.054;2023-03-23T22:16:30;96720.13;;;14.25;50.05
79331;BME280;68797;49.782;19.054;2023-03-23T22:18:59;96704.88;;;14.28;49.03
79331;BME280;68797;49.782;19.054;2023-03-23T22:21:29;96712.47;;;14.35;48.22
79331;BME280;68797;49.782;19.054;2023-03-23T22:23:59;96715.53;;;14.45;48.76
79331;BME280;68797;49.782;19.054;2023-03-23T22:26:28;96716.66;;;14.57;47.93
79331;BME280;68797;49.782;19.054;2023-03-23T22:28:55;96722.53;;;14.63;48.24
79331;BME280;68797;49.782;19.054;2023-03-23T22:31:27;96721.38;;;14.67;48.79
79331;BME280;68797;49.782;19.054;2023-03-23T22:34:01;96729.88;;;14.74;49.13
79331;BME280;68797;49.782;19.054;2023-03-23T22:36:29;96730.84;;;14.73;48.25
79331;BME280;68797;49.782;19.054;2023-03-23T22:38:57;96726.63;;;14.69;47.94
79331;BME280;68797;49.782;19.054;2023-03-23T22:41:30;96720.53;;;14.67;49.14
79331;BME280;68797;49.782;19.054;2023-03-23T22:43:57;96737.31;;;14.69;48.84
79331;BME280;68797;49.782;19.054;2023-03-23T22:46:24;96722.66;;;14.60;49.25
79331;BME280;68797;49.782;19.054;2023-03-23T22:48:51;96721.31;;;14.53;48.56
79331;BME280;68797;49.782;19.054;2023-03-23T22:51:22;96723.88;;;14.55;49.39
79331;BME280;68797;49.782;19.054;2023-03-23T22:53:56;96733.44;;;14.59;49.90
79331;BME280;68797;49.782;19.054;2023-03-23T22:56:26;96723.53;;;14.61;50.97
79331;BME280;68797;49.782;19.054;2023-03-23T22:58:53;96725.94;;;14.49;49.23
79331;BME280;68797;49.782;19.054;2023-03-23T23:01:22;96725.34;;;14.44;49.00
79331;BME280;68797;49.782;19.054;2023-03-23T23:03:50;96731.47;;;14.46;50.24
79331;BME280;68797;49.782;19.054;2023-03-23T23:06:20;96715.53;;;14.45;49.08
79331;BME280;68797;49.782;19.054;2023-03-23T23:08:47;96724.13;;;14.50;49.04
79331;BME280;68797;49.782;19.054;2023-03-23T23:11:18;96722.94;;;14.56;49.06
79331;BME280;68797;49.782;19.054;2023-03-23T23:13:48;96725.44;;;14.59;48.60
79331;BME280;68797;49.782;19.054;2023-03-23T23:16:16;96720.25;;;14.71;48.73
79331;BME280;68797;49.782;19.054;2023-03-23T23:18:44;96722.69;;;14.76;49.47
79331;BME280;68797;49.782;19.054;2023-03-23T23:21:21;96723.97;;;14.69;48.84
79331;BME280;68797;49.782;19.054;2023-03-23T23:23:48;96726.63;;;14.69;48.49
79331;BME280;68797;49.782;19.054;2023-03-23T23:26:18;96721.97;;;14.72;48.48
79331;BME280;68797;49.782;19.054;2023-03-23T23:28:48;96728.50;;;14.82;48.65
79331;BME280;68797;49.782;19.054;2023-03-23T23:31:29;96728.97;;;14.75;49.24
79331;BME280;68797;49.782;19.054;2023-03-23T23:34:00;96722.69;;;14.76;48.68
79331;BME280;68797;49.782;19.054;2023-03-23T23:36:28;96725.16;;;14.79;48.48
79331;BME280;68797;49.782;19.054;2023-03-23T23:38:56;96723.88;;;14.86;49.28
79331;BME280;68797;49.782;19.054;2023-03-23T23:41:34;96726.13;;;14.78;49.78
79331;BME280;68797;49.782;19.054;2023-03-23T23:44:03;96723.88;;;14.70;49.65
79331;BME280;68797;49.782;19.054;2023-03-23T23:46:32;96719.03;;;14.61;49.76
79331;BME280;68797;49.782;19.054;2023-03-23T23:49:01;96726.22;;;14.45;50.74
79331;BME280;68797;49.782;19.054;2023-03-23T23:51:28;96722.13;;;14.38;50.73
79331;BME280;68797;49.782;19.054;2023-03-23T23:53:59;96717.38;;;14.27;49.89
79331;BME280;68797;49.782;19.054;2023-03-23T23:56:39;96718.41;;;14.24;49.69
79331;BME280;68797;49.782;19.054;2023-03-23T23:59:08;96727.53;;;14.20;50.00
